< < Back
Terminal Aerodrome Forecast


Current Version              Previous Versions:   1  2  3  4  5  6  7  8  9  

Terminal Aerodrome Forecast

863
FTUS44 KBMX 241800 AAA
TAFANB
TAF AMD
KANB 241838Z 2419/2518 24007KT 4SM -TSRA SCT035CB
     FM242000 28007KT P6SM VCTS SCT035CB
     FM242300 29005KT P6SM SCT040
     FM250500 29002KT 6SM BR SKC
     FM251000 11002KT 2SM BR SCT002
     FM251500 22003KT P6SM SCT035=



Latest METAR

371
SAUS70 KWBC 242000 RRD
MTRANB
METAR KANB 241953Z AUTO VRB04KT 10SM TS FEW037 SCT050 29/23 A2996 RMK
AO2 LTG DSNT NE AND E RAB1857E17 TSB38 SLP135 P0014
T02890228


USA.gov is the U.S. government's official web portal to all federal, state and local government web resources and services.